Time;durP1;ratioP1;P1;durP2;ratioP2;P2;SDS_P1;SDS_P2;PMS_P1;PMS_P2;Temp;Humidity;BMP_temperature;BMP_pressure;BME280_temperature;BME280_humidity;BME280_pressure;Samples;Min_cycle;Max_cycle;Signal;HPM_P1;HPM_P2
2024/03/09 00:00:30;;;;;;;23.50;15.45;;;;;;;;;;5064418;28;20025;-44
2024/03/09 00:03:01;;;;;;;25.73;14.60;;;;;;;;;;5063722;28;20029;-42
2024/03/09 00:05:28;;;;;;;26.45;13.95;;;;;;;;;;5063962;28;20024;-38
2024/03/09 00:07:56;;;;;;;24.35;14.25;;;;;;;;;;5063861;28;20282;-45
2024/03/09 00:10:23;;;;;;;24.95;13.95;;;;;;;;;;5063869;28;20079;-46
2024/03/09 00:12:51;;;;;;;23.65;15.77;;;;;;;;;;5063787;28;20084;-41
2024/03/09 00:15:19;;;;;;;34.75;15.48;;;;;;;;;;5063638;28;20209;-47
2024/03/09 00:17:47;;;;;;;35.15;15.48;;;;;;;;;;5063815;28;20037;-44
2024/03/09 00:20:26;;;;;;;46.45;15.85;;;;;;;;;;5064147;28;20027;-44
2024/03/09 00:22:54;;;;;;;38.03;15.20;;;;;;;;;;5063817;28;20206;-37
2024/03/09 00:25:22;;;;;;;32.78;15.23;;;;;;;;;;5063907;28;20044;-40
2024/03/09 00:27:49;;;;;;;34.17;15.18;;;;;;;;;;5063586;28;20348;-41
2024/03/09 00:30:19;;;;;;;31.25;14.80;;;;;;;;;;5063940;28;20092;-39
2024/03/09 00:32:47;;;;;;;33.13;14.98;;;;;;;;;;5063002;28;20024;-46
2024/03/09 00:35:14;;;;;;;42.97;16.75;;;;;;;;;;5064416;28;20092;-42
2024/03/09 00:37:41;;;;;;;45.92;15.75;;;;;;;;;;5064171;28;20047;-38
2024/03/09 00:40:09;;;;;;;35.67;15.70;;;;;;;;;;5064100;28;20317;-43
2024/03/09 00:42:36;;;;;;;40.20;14.68;;;;;;;;;;5064074;28;20158;-37
2024/03/09 00:45:04;;;;;;;39.80;17.25;;;;;;;;;;5062657;28;20386;-37
2024/03/09 00:47:32;;;;;;;55.35;18.45;;;;;;;;;;5062616;28;20036;-41
2024/03/09 00:50:04;;;;;;;101.18;21.50;;;;;;;;;;5063445;28;20024;-41
2024/03/09 00:52:31;;;;;;;;;;;;;;;;;;5064157;28;20033;-40
2024/03/09 00:54:58;;;;;;;64.00;16.92;;;;;;;;;;5064151;28;19905;-43
2024/03/09 00:57:25;;;;;;;56.30;16.83;;;;;;;;;;5064226;28;20021;-39
2024/03/09 00:59:52;;;;;;;31.60;14.50;;;;;;;;;;5062876;28;20213;-37
2024/03/09 01:02:20;;;;;;;30.38;14.52;;;;;;;;;;5064191;28;20205;-38
2024/03/09 01:04:50;;;;;;;28.27;13.98;;;;;;;;;;5061122;28;20029;-46
2024/03/09 01:07:20;;;;;;;34.67;14.40;;;;;;;;;;5063755;28;20024;-37
2024/03/09 01:09:48;;;;;;;27.73;14.15;;;;;;;;;;5063775;28;20021;-40
2024/03/09 01:12:18;;;;;;;29.05;13.85;;;;;;;;;;5063267;28;20021;-45
2024/03/09 01:14:48;;;;;;;26.63;14.32;;;;;;;;;;5063932;28;20021;-42
2024/03/09 01:17:20;;;;;;;23.40;13.27;;;;;;;;;;5063475;28;20024;-43
2024/03/09 01:19:50;;;;;;;29.20;14.90;;;;;;;;;;5063835;28;20025;-40
2024/03/09 01:22:17;;;;;;;26.02;14.38;;;;;;;;;;5064666;28;20122;-40
2024/03/09 01:24:45;;;;;;;23.02;13.02;;;;;;;;;;5067266;28;20084;-43
2024/03/09 01:27:12;;;;;;;26.08;13.90;;;;;;;;;;5067567;28;20048;-44
2024/03/09 01:29:44;;;;;;;31.38;14.07;;;;;;;;;;5067226;28;20071;-36
2024/03/09 01:32:11;;;;;;;28.33;14.57;;;;;;;;;;5067359;28;20025;-46
2024/03/09 01:34:39;;;;;;;24.42;13.75;;;;;;;;;;5067450;28;20210;-38
2024/03/09 01:37:06;;;;;;;25.15;13.63;;;;;;;;;;5066974;28;20043;-41
2024/03/09 01:39:34;;;;;;;23.20;13.20;;;;;;;;;;5066630;28;20213;-39
2024/03/09 01:42:01;;;;;;;18.25;13.25;;;;;;;;;;5066829;28;20029;-43
2024/03/09 01:44:28;;;;;;;26.23;13.40;;;;;;;;;;5066845;28;20042;-42
2024/03/09 01:46:55;;;;;;;24.75;13.52;;;;;;;;;;5066535;28;20150;-37
2024/03/09 01:49:23;;;;;;;24.35;12.70;;;;;;;;;;5067498;28;20025;-41
2024/03/09 01:51:52;;;;;;;19.55;12.48;;;;;;;;;;5067497;28;20029;-36
2024/03/09 01:54:23;;;;;;;18.67;12.90;;;;;;;;;;5066827;28;20013;-37
2024/03/09 01:56:51;;;;;;;17.48;12.50;;;;;;;;;;5067728;28;20025;-42
2024/03/09 01:59:18;;;;;;;21.73;13.18;;;;;;;;;;5065835;28;20104;-49
2024/03/09 02:01:46;;;;;;;28.98;14.32;;;;;;;;;;5066390;28;20025;-39
2024/03/09 02:04:13;;;;;;;18.70;13.05;;;;;;;;;;5066680;28;20016;-39
2024/03/09 02:06:41;;;;;;;19.33;12.98;;;;;;;;;;5067191;28;20110;-37
2024/03/09 02:09:08;;;;;;;24.65;13.02;;;;;;;;;;5066507;28;20091;-36
2024/03/09 02:11:42;;;;;;;24.35;13.65;;;;;;;;;;5067401;28;20076;-36
2024/03/09 02:14:10;;;;;;;21.77;13.27;;;;;;;;;;5066348;28;20052;-36
2024/03/09 02:16:37;;;;;;;22.88;13.57;;;;;;;;;;5066677;28;20028;-37
2024/03/09 02:19:08;;;;;;;24.10;14.02;;;;;;;;;;5066339;28;20205;-46
2024/03/09 02:21:36;;;;;;;24.33;14.35;;;;;;;;;;5066184;28;20024;-38
2024/03/09 02:24:13;;;;;;;26.95;14.68;;;;;;;;;;5066305;28;20340;-41
2024/03/09 02:26:42;;;;;;;26.48;15.60;;;;;;;;;;5066992;28;20090;-38
2024/03/09 02:29:18;;;;;;;22.25;14.13;;;;;;;;;;5066673;28;20029;-42
2024/03/09 02:31:46;;;;;;;18.23;15.07;;;;;;;;;;5066730;28;20024;-41
2024/03/09 02:34:14;;;;;;;25.63;14.10;;;;;;;;;;5064759;28;20017;-41
2024/03/09 02:36:42;;;;;;;28.27;14.70;;;;;;;;;;5066417;28;20360;-43
2024/03/09 02:39:09;;;;;;;21.52;14.07;;;;;;;;;;5066374;28;20313;-37
2024/03/09 02:41:39;;;;;;;19.40;14.43;;;;;;;;;;5066342;28;20017;-39
2024/03/09 02:44:06;;;;;;;19.15;14.40;;;;;;;;;;5065883;28;20032;-40
2024/03/09 02:46:36;;;;;;;21.38;14.57;;;;;;;;;;5065436;28;20072;-40
2024/03/09 02:49:05;;;;;;;18.73;14.43;;;;;;;;;;5065336;28;20348;-40
2024/03/09 02:51:36;;;;;;;34.83;15.55;;;;;;;;;;5065872;28;20316;-39
2024/03/09 02:54:04;;;;;;;22.65;15.43;;;;;;;;;;5065571;28;20025;-39
2024/03/09 02:56:31;;;;;;;22.02;14.93;;;;;;;;;;5065862;28;20071;-39
2024/03/09 02:59:01;;;;;;;22.33;14.77;;;;;;;;;;5065444;28;20051;-43
2024/03/09 03:01:28;;;;;;;17.17;14.02;;;;;;;;;;5065829;28;20084;-41
2024/03/09 03:04:00;;;;;;;21.90;14.55;;;;;;;;;;5065086;28;20033;-52
2024/03/09 03:06:32;;;;;;;17.60;14.27;;;;;;;;;;5065837;28;20048;-37
2024/03/09 03:09:05;;;;;;;;;;;;;;;;;;5065670;28;20040;-44
2024/03/09 03:11:32;;;;;;;17.80;15.15;;;;;;;;;;5065525;28;19979;-42
2024/03/09 03:14:01;;;;;;;20.27;14.65;;;;;;;;;;5064999;28;20021;-46
2024/03/09 03:16:31;;;;;;;30.83;17.38;;;;;;;;;;5065151;28;20052;-53
2024/03/09 03:18:59;;;;;;;26.27;16.67;;;;;;;;;;5064765;28;20083;-46
2024/03/09 03:21:27;;;;;;;26.35;16.05;;;;;;;;;;5065284;28;20193;-47
2024/03/09 03:23:54;;;;;;;24.48;16.00;;;;;;;;;;5063481;28;20025;-48
2024/03/09 03:26:24;;;;;;;20.80;14.77;;;;;;;;;;5065146;28;20043;-48
2024/03/09 03:28:54;;;;;;;22.58;15.65;;;;;;;;;;5064701;28;20156;-43
2024/03/09 03:31:22;;;;;;;16.80;14.88;;;;;;;;;;5064845;28;20294;-50
2024/03/09 03:33:49;;;;;;;18.70;15.35;;;;;;;;;;5064418;28;20036;-46
2024/03/09 03:36:19;;;;;;;21.25;15.05;;;;;;;;;;5064875;28;20017;-45
2024/03/09 03:38:47;;;;;;;19.85;15.40;;;;;;;;;;5064339;28;20413;-45
2024/03/09 03:41:26;;;;;;;27.73;16.52;;;;;;;;;;5064785;28;20042;-50
2024/03/09 03:43:54;;;;;;;28.15;16.92;;;;;;;;;;5064524;28;20246;-54
2024/03/09 03:46:21;;;;;;;42.70;18.13;;;;;;;;;;5064078;28;20330;-49
2024/03/09 03:48:49;;;;;;;34.00;18.95;;;;;;;;;;5064402;28;20033;-47
2024/03/09 03:51:17;;;;;;;28.23;18.98;;;;;;;;;;5064730;28;20252;-51
2024/03/09 03:53:45;;;;;;;31.20;19.40;;;;;;;;;;5064430;28;20033;-43
2024/03/09 03:56:13;;;;;;;33.97;18.60;;;;;;;;;;5064996;28;20044;-43
2024/03/09 03:58:44;;;;;;;56.13;20.13;;;;;;;;;;5064159;28;20017;-52
2024/03/09 04:01:11;;;;;;;53.53;22.60;;;;;;;;;;5063547;28;20017;-41
2024/03/09 04:03:58;;;;;;;49.33;22.45;;;;;;;;;;5062338;28;20029;-45
2024/03/09 04:06:25;;;;;;;65.57;22.90;;;;;;;;;;5062560;28;20048;-42
2024/03/09 04:08:52;;;;;;;106.85;25.85;;;;;;;;;;5063101;28;20101;-41
2024/03/09 04:11:19;;;;;;;81.90;23.55;;;;;;;;;;5062266;28;20029;-50
2024/03/09 04:13:49;;;;;;;88.40;24.83;;;;;;;;;;5062838;28;20206;-42
2024/03/09 04:16:16;;;;;;;93.35;26.00;;;;;;;;;;5062383;28;20067;-41
2024/03/09 04:18:44;;;;;;;83.38;24.67;;;;;;;;;;5062693;28;20398;-45
2024/03/09 04:21:12;;;;;;;65.07;24.83;;;;;;;;;;5062511;28;20075;-40
2024/03/09 04:23:40;;;;;;;92.00;25.10;;;;;;;;;;5062583;28;20025;-41
2024/03/09 04:26:07;;;;;;;93.18;24.92;;;;;;;;;;5062531;28;20035;-41
2024/03/09 04:28:34;;;;;;;69.30;22.88;;;;;;;;;;5062567;28;20033;-41
2024/03/09 04:31:11;;;;;;;71.03;23.50;;;;;;;;;;5062161;28;20048;-40
2024/03/09 04:33:40;;;;;;;62.38;22.48;;;;;;;;;;5061728;28;20099;-39
2024/03/09 04:36:07;;;;;;;79.72;24.25;;;;;;;;;;5062115;28;20024;-42
2024/03/09 04:38:35;;;;;;;89.90;24.38;;;;;;;;;;5062185;28;20048;-39
2024/03/09 04:41:02;;;;;;;102.03;27.05;;;;;;;;;;5062849;28;20185;-37
2024/03/09 04:43:37;;;;;;;112.15;29.25;;;;;;;;;;5064287;28;20179;-48
2024/03/09 04:46:05;;;;;;;71.60;26.23;;;;;;;;;;5064137;28;20053;-37
2024/03/09 04:48:32;;;;;;;53.25;24.63;;;;;;;;;;5064309;28;20033;-51
2024/03/09 04:50:59;;;;;;;40.20;22.73;;;;;;;;;;5064058;28;20045;-37
2024/03/09 04:53:25;;;;;;;35.53;22.35;;;;;;;;;;5063763;28;20070;-43
2024/03/09 04:55:53;;;;;;;34.60;22.50;;;;;;;;;;5064046;28;20024;-37
2024/03/09 04:58:21;;;;;;;35.42;22.42;;;;;;;;;;5066764;28;20313;-39
2024/03/09 05:00:48;;;;;;;32.95;22.38;;;;;;;;;;5067615;28;20029;-43
2024/03/09 05:03:19;;;;;;;33.25;23.65;;;;;;;;;;5067624;28;20207;-38
2024/03/09 05:05:46;;;;;;;30.83;23.48;;;;;;;;;;5067830;28;20025;-40
2024/03/09 05:08:13;;;;;;;29.98;22.85;;;;;;;;;;5067501;28;20040;-43
2024/03/09 05:10:40;;;;;;;26.45;22.98;;;;;;;;;;5067679;28;20083;-41
2024/03/09 05:13:06;;;;;;;25.38;22.73;;;;;;;;;;5067208;28;20088;-40
2024/03/09 05:15:33;;;;;;;26.15;23.25;;;;;;;;;;5067476;28;20032;-41
2024/03/09 05:18:00;;;;;;;26.48;23.25;;;;;;;;;;5067180;28;20017;-37
2024/03/09 05:20:28;;;;;;;32.63;23.98;;;;;;;;;;5067525;28;20088;-36
2024/03/09 05:22:55;;;;;;;28.85;23.65;;;;;;;;;;5067078;28;20052;-45
2024/03/09 05:25:22;;;;;;;27.90;24.27;;;;;;;;;;5067148;28;20232;-42
2024/03/09 05:27:50;;;;;;;28.45;23.50;;;;;;;;;;5067219;28;20025;-41
2024/03/09 05:30:18;;;;;;;26.90;24.00;;;;;;;;;;5067637;28;20312;-37
2024/03/09 05:32:54;;;;;;;25.85;23.40;;;;;;;;;;5067595;28;20033;-41
2024/03/09 05:35:21;;;;;;;27.13;23.50;;;;;;;;;;5067842;28;20024;-38
2024/03/09 05:37:51;;;;;;;25.23;22.83;;;;;;;;;;5067513;28;20063;-35
2024/03/09 05:40:18;;;;;;;25.05;22.45;;;;;;;;;;5067069;28;20027;-43
2024/03/09 05:42:45;;;;;;;24.45;22.23;;;;;;;;;;5067593;28;20029;-41
2024/03/09 05:45:18;;;;;;;25.13;22.67;;;;;;;;;;5067543;28;20131;-40
2024/03/09 05:47:48;;;;;;;23.67;21.55;;;;;;;;;;5067107;28;20225;-37
2024/03/09 05:50:18;;;;;;;24.25;21.90;;;;;;;;;;5067399;28;20093;-39
2024/03/09 05:52:49;;;;;;;25.67;23.20;;;;;;;;;;5067366;28;20213;-38
2024/03/09 05:55:16;;;;;;;23.92;21.70;;;;;;;;;;5067559;28;20063;-45
2024/03/09 05:57:46;;;;;;;24.85;22.40;;;;;;;;;;5067490;28;20037;-39
2024/03/09 06:00:16;;;;;;;24.45;22.02;;;;;;;;;;5067079;28;20021;-41
2024/03/09 06:02:44;;;;;;;25.55;23.15;;;;;;;;;;5067062;28;20025;-37
2024/03/09 06:05:11;;;;;;;24.83;22.40;;;;;;;;;;5066857;28;20085;-38
2024/03/09 06:07:38;;;;;;;23.88;21.67;;;;;;;;;;5066796;28;20236;-42
2024/03/09 06:10:13;;;;;;;25.15;22.60;;;;;;;;;;5067145;28;20070;-45
2024/03/09 06:12:47;;;;;;;23.80;21.33;;;;;;;;;;5067081;28;20029;-36
2024/03/09 06:15:16;;;;;;;24.70;22.42;;;;;;;;;;5066822;28;20027;-41
2024/03/09 06:17:44;;;;;;;24.77;22.27;;;;;;;;;;5066664;28;20043;-39
2024/03/09 06:20:17;;;;;;;24.60;22.40;;;;;;;;;;5066441;28;20177;-39
2024/03/09 06:22:45;;;;;;;23.52;21.10;;;;;;;;;;5066225;28;20053;-37
2024/03/09 06:25:29;;;;;;;24.13;21.73;;;;;;;;;;5066506;28;20025;-40
2024/03/09 06:28:02;;;;;;;24.08;21.85;;;;;;;;;;5065906;28;20093;-44
2024/03/09 06:30:29;;;;;;;24.98;22.63;;;;;;;;;;5066642;28;20029;-40
2024/03/09 06:32:57;;;;;;;23.77;21.52;;;;;;;;;;5066201;28;20084;-41
2024/03/09 06:35:27;;;;;;;23.42;21.30;;;;;;;;;;5066294;28;20170;-40
2024/03/09 06:38:01;;;;;;;23.45;21.05;;;;;;;;;;5066297;28;20017;-40
2024/03/09 06:40:30;;;;;;;26.30;21.65;;;;;;;;;;5066356;28;20401;-38
2024/03/09 06:43:05;;;;;;;23.92;21.52;;;;;;;;;;5066432;28;20025;-36
2024/03/09 06:45:32;;;;;;;22.77;20.75;;;;;;;;;;5065839;28;20044;-38
2024/03/09 06:47:59;;;;;;;22.98;20.80;;;;;;;;;;5065826;28;20074;-37
2024/03/09 06:50:29;;;;;;;22.75;20.52;;;;;;;;;;5066456;28;20040;-40
2024/03/09 06:52:56;;;;;;;22.27;20.27;;;;;;;;;;5066274;28;20063;-37
2024/03/09 06:55:26;;;;;;;23.17;20.92;;;;;;;;;;5065847;28;20088;-39
2024/03/09 06:58:02;;;;;;;23.27;20.83;;;;;;;;;;5066190;28;20020;-39
2024/03/09 07:00:30;;;;;;;23.55;21.35;;;;;;;;;;5066067;28;20020;-46
2024/03/09 07:03:00;;;;;;;24.17;19.88;;;;;;;;;;5065378;28;20047;-37
2024/03/09 07:05:35;;;;;;;22.92;20.73;;;;;;;;;;5066042;28;20021;-37
2024/03/09 07:08:05;;;;;;;21.83;19.48;;;;;;;;;;5065315;28;20032;-43
2024/03/09 07:10:33;;;;;;;21.65;19.77;;;;;;;;;;5065495;28;20025;-40
2024/03/09 07:13:00;;;;;;;21.75;19.70;;;;;;;;;;5065389;28;20028;-41
2024/03/09 07:15:28;;;;;;;21.92;19.88;;;;;;;;;;5065996;28;20077;-51
2024/03/09 07:17:55;;;;;;;21.67;19.65;;;;;;;;;;5065492;28;20331;-43
2024/03/09 07:20:26;;;;;;;22.25;20.05;;;;;;;;;;5065431;28;20025;-41
2024/03/09 07:22:52;;;;;;;21.65;19.48;;;;;;;;;;5065365;28;20297;-46
2024/03/09 07:25:26;;;;;;;21.00;18.95;;;;;;;;;;5065698;28;20043;-44
2024/03/09 07:27:57;;;;;;;21.35;19.35;;;;;;;;;;5065011;28;20029;-48
2024/03/09 07:30:24;;;;;;;25.92;20.30;;;;;;;;;;5065803;28;20236;-40
2024/03/09 07:32:53;;;;;;;32.55;22.42;;;;;;;;;;5065613;28;20031;-40
2024/03/09 07:35:20;;;;;;;40.08;21.77;;;;;;;;;;5065503;28;20021;-38
2024/03/09 07:37:48;;;;;;;40.25;21.58;;;;;;;;;;5065217;28;20205;-44
2024/03/09 07:40:16;;;;;;;25.02;20.25;;;;;;;;;;5065394;28;20257;-41
2024/03/09 07:42:42;;;;;;;23.98;20.13;;;;;;;;;;5065342;28;20029;-38
2024/03/09 07:45:11;;;;;;;23.65;20.10;;;;;;;;;;5065254;28;20021;-43
2024/03/09 07:47:39;;;;;;;22.42;20.13;;;;;;;;;;5065249;28;20321;-42
2024/03/09 07:50:13;;;;;;;21.60;19.27;;;;;;;;;;5065198;28;20029;-41
2024/03/09 07:52:47;;;;;;;21.92;19.58;;;;;;;;;;5064847;28;20033;-36
2024/03/09 07:55:17;;;;;;;24.48;20.58;;;;;;;;;;5064789;28;20013;-40
2024/03/09 07:57:44;;;;;;;23.60;20.48;;;;;;;;;;5065227;28;20035;-45
2024/03/09 08:00:19;;;;;;;23.27;19.88;;;;;;;;;;5065061;28;20013;-39
2024/03/09 08:02:49;;;;;;;25.88;20.13;;;;;;;;;;5064628;28;20075;-39
2024/03/09 08:05:16;;;;;;;33.28;21.02;;;;;;;;;;5064860;28;20088;-42
2024/03/09 08:07:44;;;;;;;47.88;22.63;;;;;;;;;;5064914;28;20025;-45
2024/03/09 08:10:20;;;;;;;44.75;22.17;;;;;;;;;;5064913;28;20028;-48
2024/03/09 08:12:48;;;;;;;41.40;21.35;;;;;;;;;;5065064;28;20277;-38
2024/03/09 08:15:15;;;;;;;39.53;22.60;;;;;;;;;;5064630;28;20027;-43
2024/03/09 08:17:48;;;;;;;43.78;22.20;;;;;;;;;;5064532;28;20217;-42
2024/03/09 08:20:15;;;;;;;39.70;21.65;;;;;;;;;;5064250;28;20036;-38
2024/03/09 08:22:43;;;;;;;24.38;21.25;;;;;;;;;;5064372;28;20033;-47
2024/03/09 08:25:15;;;;;;;29.30;21.90;;;;;;;;;;5064492;28;20047;-43
2024/03/09 08:27:43;;;;;;;24.45;20.92;;;;;;;;;;5064812;28;20025;-40
2024/03/09 08:30:18;;;;;;;24.23;20.92;;;;;;;;;;5064393;28;20025;-46
2024/03/09 08:32:55;;;;;;;27.98;21.58;;;;;;;;;;5063481;28;20033;-40
2024/03/09 08:35:22;;;;;;;23.25;20.75;;;;;;;;;;5064390;28;20024;-38
2024/03/09 08:37:50;;;;;;;21.95;19.83;;;;;;;;;;5064021;28;20025;-42
2024/03/09 08:40:18;;;;;;;23.48;21.00;;;;;;;;;;5064318;28;20021;-41
2024/03/09 08:42:54;;;;;;;24.00;21.60;;;;;;;;;;5064173;28;20029;-39
2024/03/09 08:45:21;;;;;;;23.70;21.27;;;;;;;;;;5064245;28;20130;-40
2024/03/09 08:47:50;;;;;;;23.73;21.42;;;;;;;;;;5064370;28;20025;-49
2024/03/09 08:50:17;;;;;;;25.67;20.98;;;;;;;;;;5064426;28;20024;-37
2024/03/09 08:52:45;;;;;;;23.52;21.15;;;;;;;;;;5064065;28;20032;-45
2024/03/09 08:55:12;;;;;;;23.60;21.00;;;;;;;;;;5064446;28;20028;-40
2024/03/09 08:57:39;;;;;;;22.83;20.63;;;;;;;;;;5064295;28;20075;-40
2024/03/09 09:00:06;;;;;;;23.55;21.20;;;;;;;;;;5064069;28;20037;-37
2024/03/09 09:02:33;;;;;;;24.45;21.02;;;;;;;;;;5064419;28;20025;-44
2024/03/09 09:05:00;;;;;;;35.25;21.83;;;;;;;;;;5063956;28;20094;-42
2024/03/09 09:07:27;;;;;;;31.48;21.67;;;;;;;;;;5064361;28;20070;-37
2024/03/09 09:09:53;;;;;;;23.75;21.00;;;;;;;;;;5064455;28;20027;-37
2024/03/09 09:12:20;;;;;;;23.27;20.95;;;;;;;;;;5064451;28;20055;-38
2024/03/09 09:14:47;;;;;;;23.33;20.90;;;;;;;;;;5064151;28;20021;-41
2024/03/09 09:17:13;;;;;;;24.98;21.30;;;;;;;;;;5064212;28;20025;-39
2024/03/09 09:19:40;;;;;;;22.63;20.33;;;;;;;;;;5063984;28;20059;-41
2024/03/09 09:22:07;;;;;;;23.45;21.25;;;;;;;;;;5063985;28;20020;-39
2024/03/09 09:24:34;;;;;;;23.75;21.25;;;;;;;;;;5063758;28;20035;-37
2024/03/09 09:27:00;;;;;;;23.80;21.30;;;;;;;;;;5063820;28;20089;-41
2024/03/09 09:29:28;;;;;;;23.92;21.63;;;;;;;;;;5064321;28;20009;-37
2024/03/09 09:31:56;;;;;;;23.13;20.95;;;;;;;;;;5064480;28;20028;-37
2024/03/09 09:34:23;;;;;;;23.02;20.85;;;;;;;;;;5063772;28;20051;-38
2024/03/09 09:36:53;;;;;;;23.10;20.75;;;;;;;;;;5064136;28;20049;-37
2024/03/09 09:39:29;;;;;;;22.95;20.60;;;;;;;;;;5063567;28;20021;-39
2024/03/09 09:41:57;;;;;;;22.65;20.40;;;;;;;;;;5063759;28;20021;-37
2024/03/09 09:44:28;;;;;;;22.23;20.13;;;;;;;;;;5066633;28;20017;-37
2024/03/09 09:46:58;;;;;;;23.10;20.83;;;;;;;;;;5066608;28;20229;-37
2024/03/09 09:49:25;;;;;;;21.77;19.73;;;;;;;;;;5066610;28;20017;-38
2024/03/09 09:51:52;;;;;;;22.85;20.27;;;;;;;;;;5067156;28;20071;-41
2024/03/09 09:54:27;;;;;;;23.30;21.10;;;;;;;;;;5066664;28;20025;-45
2024/03/09 09:56:55;;;;;;;22.65;20.40;;;;;;;;;;5067284;28;20092;-37
2024/03/09 09:59:22;;;;;;;23.60;21.40;;;;;;;;;;5066561;28;20025;-36
2024/03/09 10:01:48;;;;;;;22.35;20.10;;;;;;;;;;5066888;28;20036;-37
2024/03/09 10:04:18;;;;;;;22.27;19.80;;;;;;;;;;5066628;28;20058;-44
2024/03/09 10:06:49;;;;;;;22.50;20.23;;;;;;;;;;5067192;28;20040;-37
2024/03/09 10:09:28;;;;;;;22.00;19.97;;;;;;;;;;5066821;28;20047;-45
2024/03/09 10:11:55;;;;;;;30.77;19.80;;;;;;;;;;5067271;28;20044;-37
2024/03/09 10:14:31;;;;;;;23.00;20.92;;;;;;;;;;5066580;28;20035;-38
2024/03/09 10:17:02;;;;;;;22.05;19.83;;;;;;;;;;5066614;28;20082;-45
2024/03/09 10:19:28;;;;;;;22.73;20.67;;;;;;;;;;5066294;28;20212;-38
2024/03/09 10:21:55;;;;;;;22.63;20.42;;;;;;;;;;5067016;28;20012;-38
2024/03/09 10:24:23;;;;;;;22.65;20.63;;;;;;;;;;5066563;28;20029;-45
2024/03/09 10:26:49;;;;;;;21.65;19.70;;;;;;;;;;5067272;28;20021;-43
2024/03/09 10:29:19;;;;;;;21.88;19.83;;;;;;;;;;5066447;28;20337;-36
2024/03/09 10:31:45;;;;;;;22.13;20.05;;;;;;;;;;5067267;28;20024;-40
2024/03/09 10:34:12;;;;;;;23.55;21.05;;;;;;;;;;5066122;28;20056;-40
2024/03/09 10:36:39;;;;;;;22.63;20.42;;;;;;;;;;5066978;28;20020;-40
2024/03/09 10:39:06;;;;;;;23.85;21.60;;;;;;;;;;5066302;28;20046;-38
2024/03/09 10:41:35;;;;;;;23.60;21.25;;;;;;;;;;5066917;28;20025;-38
2024/03/09 10:44:03;;;;;;;23.33;21.23;;;;;;;;;;5066086;28;20037;-37
2024/03/09 10:46:32;;;;;;;22.63;20.50;;;;;;;;;;5065686;28;20045;-38
2024/03/09 10:48:59;;;;;;;22.15;20.20;;;;;;;;;;5065873;28;20087;-37
2024/03/09 10:51:35;;;;;;;22.20;20.05;;;;;;;;;;5066045;28;20131;-37
2024/03/09 10:54:17;;;;;;;23.08;20.90;;;;;;;;;;5065514;28;20040;-39
2024/03/09 10:56:45;;;;;;;21.80;19.83;;;;;;;;;;5065843;28;20021;-37
2024/03/09 10:59:13;;;;;;;22.13;20.02;;;;;;;;;;5065585;28;20023;-36
2024/03/09 11:01:40;;;;;;;22.55;20.55;;;;;;;;;;5066386;28;20028;-37
2024/03/09 11:04:08;;;;;;;22.55;20.48;;;;;;;;;;5065923;28;20035;-37
2024/03/09 11:06:35;;;;;;;22.42;20.20;;;;;;;;;;5066075;28;20039;-38
2024/03/09 11:09:06;;;;;;;24.02;20.88;;;;;;;;;;5065682;28;20028;-37
2024/03/09 11:11:33;;;;;;;22.98;20.83;;;;;;;;;;5065971;28;20273;-35
2024/03/09 11:14:11;;;;;;;25.23;21.00;;;;;;;;;;5065722;28;20063;-36
2024/03/09 11:16:37;;;;;;;22.95;20.42;;;;;;;;;;5065864;28;20032;-39
2024/03/09 11:19:08;;;;;;;23.83;21.33;;;;;;;;;;5065336;28;20021;-41
2024/03/09 11:21:35;;;;;;;21.95;19.85;;;;;;;;;;5065271;28;20021;-49
2024/03/09 11:24:11;;;;;;;24.38;21.67;;;;;;;;;;5064888;28;20087;-40
2024/03/09 11:26:41;;;;;;;22.58;20.38;;;;;;;;;;5065148;28;20029;-41
2024/03/09 11:29:11;;;;;;;24.75;19.42;;;;;;;;;;5064633;28;20048;-40
2024/03/09 11:31:41;;;;;;;21.65;19.63;;;;;;;;;;5065245;28;20028;-45
2024/03/09 11:34:15;;;;;;;22.25;19.88;;;;;;;;;;5064664;28;20048;-46
2024/03/09 11:36:51;;;;;;;22.83;19.50;;;;;;;;;;5065127;28;20055;-43
2024/03/09 11:39:21;;;;;;;20.88;18.77;;;;;;;;;;5064514;28;20321;-42
2024/03/09 11:41:48;;;;;;;20.75;18.73;;;;;;;;;;5064816;28;20305;-49
2024/03/09 11:44:20;;;;;;;21.13;18.70;;;;;;;;;;5064438;28;20029;-44
2024/03/09 11:46:47;;;;;;;21.70;19.65;;;;;;;;;;5064329;28;20061;-44
2024/03/09 11:49:17;;;;;;;20.55;18.40;;;;;;;;;;5064353;28;20064;-54
2024/03/09 11:51:44;;;;;;;20.63;18.55;;;;;;;;;;5064839;28;20298;-42
2024/03/09 11:54:11;;;;;;;19.83;17.90;;;;;;;;;;5064322;28;20307;-49
2024/03/09 11:56:40;;;;;;;20.45;18.35;;;;;;;;;;5065061;28;20167;-37
2024/03/09 11:59:07;;;;;;;19.67;17.58;;;;;;;;;;5064806;28;20021;-38
2024/03/09 12:01:37;;;;;;;20.98;17.20;;;;;;;;;;5065068;28;20021;-37
2024/03/09 12:04:04;;;;;;;19.48;17.27;;;;;;;;;;5064397;28;20260;-39
2024/03/09 12:06:31;;;;;;;22.30;17.58;;;;;;;;;;5064456;28;20024;-36
2024/03/09 12:08:59;;;;;;;21.75;17.98;;;;;;;;;;5064034;28;20052;-37
2024/03/09 12:11:28;;;;;;;20.15;17.95;;;;;;;;;;5064386;28;20213;-42
2024/03/09 12:13:56;;;;;;;19.33;16.90;;;;;;;;;;5064595;28;20032;-41
2024/03/09 12:16:23;;;;;;;18.45;16.55;;;;;;;;;;5064888;28;20350;-45
2024/03/09 12:18:50;;;;;;;20.98;16.80;;;;;;;;;;5064489;28;20048;-41
2024/03/09 12:21:18;;;;;;;19.02;17.13;;;;;;;;;;5064526;28;20044;-46
2024/03/09 12:23:52;;;;;;;20.35;16.75;;;;;;;;;;5064230;28;20021;-44
2024/03/09 12:26:23;;;;;;;18.15;15.55;;;;;;;;;;5064337;28;20036;-44
2024/03/09 12:28:50;;;;;;;18.08;16.15;;;;;;;;;;5064137;28;20070;-44
2024/03/09 12:31:17;;;;;;;19.27;17.10;;;;;;;;;;5064118;28;20025;-48
2024/03/09 12:33:47;;;;;;;18.30;16.55;;;;;;;;;;5064017;28;20063;-52
2024/03/09 12:36:20;;;;;;;19.58;16.67;;;;;;;;;;5064419;28;20025;-43
2024/03/09 12:38:48;;;;;;;22.85;16.50;;;;;;;;;;5064048;28;20262;-45
2024/03/09 12:41:31;;;;;;;19.10;16.27;;;;;;;;;;5064571;28;20021;-40
2024/03/09 12:44:04;;;;;;;18.60;15.73;;;;;;;;;;5063938;28;20025;-40
2024/03/09 12:46:32;;;;;;;18.02;16.20;;;;;;;;;;5063804;28;20349;-45
2024/03/09 12:49:08;;;;;;;17.27;15.57;;;;;;;;;;5063525;28;20040;-38
2024/03/09 12:51:39;;;;;;;16.92;15.32;;;;;;;;;;5064235;28;20032;-41
2024/03/09 12:54:09;;;;;;;17.10;15.30;;;;;;;;;;5063561;28;20028;-45
2024/03/09 12:56:38;;;;;;;17.27;15.57;;;;;;;;;;5063893;28;20021;-48
2024/03/09 12:59:08;;;;;;;16.85;15.25;;;;;;;;;;5063495;28;20061;-47
2024/03/09 13:01:44;;;;;;;17.35;15.60;;;;;;;;;;5063725;28;20040;-38
2024/03/09 13:04:11;;;;;;;16.60;14.48;;;;;;;;;;5063432;28;20051;-37
2024/03/09 13:06:41;;;;;;;19.27;15.98;;;;;;;;;;5064098;28;20056;-42
2024/03/09 13:09:14;;;;;;;19.13;16.17;;;;;;;;;;5063594;28;20099;-36
2024/03/09 13:11:42;;;;;;;17.63;15.30;;;;;;;;;;5063954;28;20024;-46
2024/03/09 13:14:08;;;;;;;16.73;14.65;;;;;;;;;;5063620;28;20074;-43
2024/03/09 13:16:35;;;;;;;16.77;14.98;;;;;;;;;;5063787;28;20131;-47
2024/03/09 13:19:04;;;;;;;18.45;15.73;;;;;;;;;;5065794;28;20182;-40
2024/03/09 13:21:31;;;;;;;16.95;15.20;;;;;;;;;;5067796;28;20031;-37
2024/03/09 13:23:58;;;;;;;21.20;15.35;;;;;;;;;;5067525;28;20025;-38
2024/03/09 13:26:26;;;;;;;18.63;14.68;;;;;;;;;;5067571;28;20033;-38
2024/03/09 13:28:53;;;;;;;20.20;15.20;;;;;;;;;;5067575;28;20036;-42
2024/03/09 13:31:23;;;;;;;19.00;14.80;;;;;;;;;;5067401;28;20352;-37
2024/03/09 13:33:49;;;;;;;17.10;15.18;;;;;;;;;;5067124;28;20032;-39
2024/03/09 13:36:17;;;;;;;17.55;15.43;;;;;;;;;;5067535;28;20309;-36
2024/03/09 13:38:44;;;;;;;797.67;51.00;;;;;;;;;;5067008;28;20040;-42
2024/03/09 13:41:10;;;;;;;30.88;16.42;;;;;;;;;;5067608;28;20084;-40
2024/03/09 13:43:39;;;;;;;17.85;15.85;;;;;;;;;;5067280;28;20087;-43
2024/03/09 13:46:07;;;;;;;18.35;15.93;;;;;;;;;;5067024;28;20060;-39
2024/03/09 13:48:40;;;;;;;18.27;14.85;;;;;;;;;;5067246;28;20096;-35
2024/03/09 13:51:08;;;;;;;16.35;14.65;;;;;;;;;;5067438;28;20044;-37
2024/03/09 13:53:42;;;;;;;16.33;14.82;;;;;;;;;;5067159;28;20193;-37
2024/03/09 13:56:15;;;;;;;18.08;14.63;;;;;;;;;;5067166;28;20068;-44
2024/03/09 13:58:45;;;;;;;29.08;15.27;;;;;;;;;;5066616;28;20025;-44
2024/03/09 14:01:16;;;;;;;18.00;14.93;;;;;;;;;;5067087;28;20301;-41
2024/03/09 14:03:44;;;;;;;18.08;14.75;;;;;;;;;;5066836;28;20040;-37
2024/03/09 14:06:14;;;;;;;18.90;14.70;;;;;;;;;;5067275;28;20017;-37
2024/03/09 14:08:40;;;;;;;23.27;15.02;;;;;;;;;;5066849;28;20222;-37
2024/03/09 14:11:11;;;;;;;22.75;15.40;;;;;;;;;;5067029;28;20198;-38
2024/03/09 14:13:38;;;;;;;19.20;15.23;;;;;;;;;;5066774;28;20029;-37
2024/03/09 14:16:08;;;;;;;20.20;14.50;;;;;;;;;;5066980;28;20019;-37
2024/03/09 14:18:35;;;;;;;23.80;15.80;;;;;;;;;;5066782;28;20047;-38
2024/03/09 14:21:13;;;;;;;20.80;15.35;;;;;;;;;;5067109;28;20080;-37
2024/03/09 14:23:42;;;;;;;17.90;15.52;;;;;;;;;;5066368;28;20071;-41
2024/03/09 14:26:11;;;;;;;21.25;15.93;;;;;;;;;;5066687;28;20021;-40
2024/03/09 14:28:44;;;;;;;17.15;15.38;;;;;;;;;;5066380;28;20036;-42